sensor_id;sensor_type;location;lat;lon;timestamp;temperature;humidity
72591;SHT31;60625;51.212;5.952;2023-09-08T00:03:09;20.94;66.54
72591;SHT31;60625;51.212;5.952;2023-09-08T00:08:10;20.80;67.64
72591;SHT31;60625;51.212;5.952;2023-09-08T00:13:10;20.65;67.72
72591;SHT31;60625;51.212;5.952;2023-09-08T00:18:11;20.52;67.44
72591;SHT31;60625;51.212;5.952;2023-09-08T00:23:12;20.46;67.74
72591;SHT31;60625;51.212;5.952;2023-09-08T00:28:12;20.42;67.51
72591;SHT31;60625;51.212;5.952;2023-09-08T00:33:13;20.29;68.17
72591;SHT31;60625;51.212;5.952;2023-09-08T00:38:14;20.14;68.68
72591;SHT31;60625;51.212;5.952;2023-09-08T00:43:14;20.03;69.15
72591;SHT31;60625;51.212;5.952;2023-09-08T00:48:15;19.87;69.43
72591;SHT31;60625;51.212;5.952;2023-09-08T00:53:16;19.85;69.39
72591;SHT31;60625;51.212;5.952;2023-09-08T00:58:18;19.77;69.75
72591;SHT31;60625;51.212;5.952;2023-09-08T01:03:19;19.70;70.06
72591;SHT31;60625;51.212;5.952;2023-09-08T01:08:20;19.62;70.18
72591;SHT31;60625;51.212;5.952;2023-09-08T01:13:22;19.56;70.50
72591;SHT31;60625;51.212;5.952;2023-09-08T01:18:22;19.40;70.82
72591;SHT31;60625;51.212;5.952;2023-09-08T01:29:10;19.14;71.71
72591;SHT31;60625;51.212;5.952;2023-09-08T01:34:11;19.01;71.56
72591;SHT31;60625;51.212;5.952;2023-09-08T01:39:13;18.80;72.04
72591;SHT31;60625;51.212;5.952;2023-09-08T01:44:14;18.74;72.67
72591;SHT31;60625;51.212;5.952;2023-09-08T01:49:14;18.73;73.04
72591;SHT31;60625;51.212;5.952;2023-09-08T01:54:16;18.62;73.64
72591;SHT31;60625;51.212;5.952;2023-09-08T01:59:17;18.56;73.94
72591;SHT31;60625;51.212;5.952;2023-09-08T02:04:17;18.55;73.70
72591;SHT31;60625;51.212;5.952;2023-09-08T02:09:18;18.48;74.11
72591;SHT31;60625;51.212;5.952;2023-09-08T02:14:18;18.41;74.36
72591;SHT31;60625;51.212;5.952;2023-09-08T02:19:20;18.41;74.23
72591;SHT31;60625;51.212;5.952;2023-09-08T02:24:20;18.37;74.61
72591;SHT31;60625;51.212;5.952;2023-09-08T02:29:21;18.34;74.77
72591;SHT31;60625;51.212;5.952;2023-09-08T02:34:23;18.25;74.99
72591;SHT31;60625;51.212;5.952;2023-09-08T02:39:24;18.11;75.32
72591;SHT31;60625;51.212;5.952;2023-09-08T02:44:26;18.02;75.29
72591;SHT31;60625;51.212;5.952;2023-09-08T02:49:28;17.93;75.76
72591;SHT31;60625;51.212;5.952;2023-09-08T02:54:28;17.88;75.89
72591;SHT31;60625;51.212;5.952;2023-09-08T02:59:29;17.89;75.77
72591;SHT31;60625;51.212;5.952;2023-09-08T03:04:29;17.89;75.79
72591;SHT31;60625;51.212;5.952;2023-09-08T03:09:33;17.83;76.36
72591;SHT31;60625;51.212;5.952;2023-09-08T03:14:34;17.76;76.64
72591;SHT31;60625;51.212;5.952;2023-09-08T03:19:34;17.72;76.88
72591;SHT31;60625;51.212;5.952;2023-09-08T03:24:35;17.67;76.91
72591;SHT31;60625;51.212;5.952;2023-09-08T03:29:35;17.65;77.19
72591;SHT31;60625;51.212;5.952;2023-09-08T03:34:36;17.62;77.22
72591;SHT31;60625;51.212;5.952;2023-09-08T03:39:40;17.56;77.29
72591;SHT31;60625;51.212;5.952;2023-09-08T03:44:41;17.53;77.31
72591;SHT31;60625;51.212;5.952;2023-09-08T03:49:41;17.52;77.29
72591;SHT31;60625;51.212;5.952;2023-09-08T03:54:42;17.45;77.46
72591;SHT31;60625;51.212;5.952;2023-09-08T03:59:44;17.39;77.83
72591;SHT31;60625;51.212;5.952;2023-09-08T04:04:44;17.37;77.67
72591;SHT31;60625;51.212;5.952;2023-09-08T04:09:45;17.36;77.83
72591;SHT31;60625;51.212;5.952;2023-09-08T04:14:45;17.30;78.07
72591;SHT31;60625;51.212;5.952;2023-09-08T04:19:46;17.23;78.26
72591;SHT31;60625;51.212;5.952;2023-09-08T04:24:46;17.13;78.23
72591;SHT31;60625;51.212;5.952;2023-09-08T04:29:47;17.04;78.36
72591;SHT31;60625;51.212;5.952;2023-09-08T04:34:47;17.03;78.33
72591;SHT31;60625;51.212;5.952;2023-09-08T04:39:49;16.96;78.32
72591;SHT31;60625;51.212;5.952;2023-09-08T04:44:50;16.93;78.57
72591;SHT31;60625;51.212;5.952;2023-09-08T04:49:51;16.89;78.76
72591;SHT31;60625;51.212;5.952;2023-09-08T04:54:51;16.84;78.82
72591;SHT31;60625;51.212;5.952;2023-09-08T04:59:52;16.82;78.86
72591;SHT31;60625;51.212;5.952;2023-09-08T05:04:53;16.82;78.77
72591;SHT31;60625;51.212;5.952;2023-09-08T05:09:54;16.81;78.73
72591;SHT31;60625;51.212;5.952;2023-09-08T05:14:55;16.78;79.27
72591;SHT31;60625;51.212;5.952;2023-09-08T05:20:01;16.75;79.44
72591;SHT31;60625;51.212;5.952;2023-09-08T05:25:04;16.75;79.63
72591;SHT31;60625;51.212;5.952;2023-09-08T05:30:05;16.76;79.92
72591;SHT31;60625;51.212;5.952;2023-09-08T05:35:08;16.76;80.03
72591;SHT31;60625;51.212;5.952;2023-09-08T05:40:10;16.77;80.04
72591;SHT31;60625;51.212;5.952;2023-09-08T05:45:11;16.78;79.86
72591;SHT31;60625;51.212;5.952;2023-09-08T05:50:12;16.90;79.89
72591;SHT31;60625;51.212;5.952;2023-09-08T05:55:13;17.54;79.22
72591;SHT31;60625;51.212;5.952;2023-09-08T06:00:14;17.66;78.75
72591;SHT31;60625;51.212;5.952;2023-09-08T06:05:16;17.62;79.25
72591;SHT31;60625;51.212;5.952;2023-09-08T06:10:17;17.65;80.02
72591;SHT31;60625;51.212;5.952;2023-09-08T06:15:19;17.68;80.51
72591;SHT31;60625;51.212;5.952;2023-09-08T06:20:20;17.76;80.81
72591;SHT31;60625;51.212;5.952;2023-09-08T06:25:22;17.85;81.08
72591;SHT31;60625;51.212;5.952;2023-09-08T06:30:22;17.94;80.64
72591;SHT31;60625;51.212;5.952;2023-09-08T06:35:23;18.05;80.17
72591;SHT31;60625;51.212;5.952;2023-09-08T06:40:26;18.17;80.93
72591;SHT31;60625;51.212;5.952;2023-09-08T06:45:26;18.29;80.78
72591;SHT31;60625;51.212;5.952;2023-09-08T06:50:28;18.43;80.10
72591;SHT31;60625;51.212;5.952;2023-09-08T06:55:30;18.56;78.61
72591;SHT31;60625;51.212;5.952;2023-09-08T07:00:32;18.71;77.36
72591;SHT31;60625;51.212;5.952;2023-09-08T07:05:34;18.87;76.74
72591;SHT31;60625;51.212;5.952;2023-09-08T07:10:36;19.05;75.93
72591;SHT31;60625;51.212;5.952;2023-09-08T07:15:37;19.21;75.00
72591;SHT31;60625;51.212;5.952;2023-09-08T07:20:37;19.40;74.25
72591;SHT31;60625;51.212;5.952;2023-09-08T07:25:38;19.59;73.92
72591;SHT31;60625;51.212;5.952;2023-09-08T07:30:39;19.82;73.42
72591;SHT31;60625;51.212;5.952;2023-09-08T07:35:40;20.11;72.54
72591;SHT31;60625;51.212;5.952;2023-09-08T07:40:42;20.41;71.79
72591;SHT31;60625;51.212;5.952;2023-09-08T07:45:42;20.71;71.15
72591;SHT31;60625;51.212;5.952;2023-09-08T07:50:43;21.02;70.81
72591;SHT31;60625;51.212;5.952;2023-09-08T07:55:43;21.31;70.54
72591;SHT31;60625;51.212;5.952;2023-09-08T08:00:44;21.59;69.80
72591;SHT31;60625;51.212;5.952;2023-09-08T08:05:45;21.88;69.47
72591;SHT31;60625;51.212;5.952;2023-09-08T08:10:45;22.14;69.38
72591;SHT31;60625;51.212;5.952;2023-09-08T08:15:46;22.45;68.36
72591;SHT31;60625;51.212;5.952;2023-09-08T08:20:47;22.74;67.60
72591;SHT31;60625;51.212;5.952;2023-09-08T08:25:50;22.97;67.21
72591;SHT31;60625;51.212;5.952;2023-09-08T08:30:51;23.19;66.49
72591;SHT31;60625;51.212;5.952;2023-09-08T08:35:53;23.44;65.68
72591;SHT31;60625;51.212;5.952;2023-09-08T08:40:54;23.72;65.09
72591;SHT31;60625;51.212;5.952;2023-09-08T08:45:54;24.14;64.04
72591;SHT31;60625;51.212;5.952;2023-09-08T08:50:57;24.49;63.44
72591;SHT31;60625;51.212;5.952;2023-09-08T08:55:59;24.62;63.12
72591;SHT31;60625;51.212;5.952;2023-09-08T09:01:00;24.86;62.82
72591;SHT31;60625;51.212;5.952;2023-09-08T09:06:02;25.01;62.60
72591;SHT31;60625;51.212;5.952;2023-09-08T09:11:04;25.18;62.08
72591;SHT31;60625;51.212;5.952;2023-09-08T09:16:05;25.44;61.13
72591;SHT31;60625;51.212;5.952;2023-09-08T09:21:08;25.64;60.81
72591;SHT31;60625;51.212;5.952;2023-09-08T09:26:08;25.85;60.55
72591;SHT31;60625;51.212;5.952;2023-09-08T09:31:09;26.04;59.91
72591;SHT31;60625;51.212;5.952;2023-09-08T09:36:19;26.27;59.48
72591;SHT31;60625;51.212;5.952;2023-09-08T09:41:22;26.55;59.49
72591;SHT31;60625;51.212;5.952;2023-09-08T09:46:22;26.88;58.27
72591;SHT31;60625;51.212;5.952;2023-09-08T09:51:23;27.03;57.48
72591;SHT31;60625;51.212;5.952;2023-09-08T09:56:24;27.23;56.57
72591;SHT31;60625;51.212;5.952;2023-09-08T10:01:26;27.42;55.63
72591;SHT31;60625;51.212;5.952;2023-09-08T10:06:27;27.59;54.66
72591;SHT31;60625;51.212;5.952;2023-09-08T10:11:28;27.78;53.37
72591;SHT31;60625;51.212;5.952;2023-09-08T10:16:34;27.92;52.89
72591;SHT31;60625;51.212;5.952;2023-09-08T10:21:38;28.08;52.86
72591;SHT31;60625;51.212;5.952;2023-09-08T10:26:46;28.24;52.79
72591;SHT31;60625;51.212;5.952;2023-09-08T10:31:54;28.49;53.35
72591;SHT31;60625;51.212;5.952;2023-09-08T10:36:56;28.83;52.10
72591;SHT31;60625;51.212;5.952;2023-09-08T10:47:22;29.46;51.56
72591;SHT31;60625;51.212;5.952;2023-09-08T10:52:24;29.72;50.99
72591;SHT31;60625;51.212;5.952;2023-09-08T10:57:25;29.82;50.97
72591;SHT31;60625;51.212;5.952;2023-09-08T11:02:32;29.75;50.49
72591;SHT31;60625;51.212;5.952;2023-09-08T11:07:54;29.73;50.44
72591;SHT31;60625;51.212;5.952;2023-09-08T11:12:55;29.83;50.78
72591;SHT31;60625;51.212;5.952;2023-09-08T11:17:56;30.06;50.22
72591;SHT31;60625;51.212;5.952;2023-09-08T11:22:56;30.28;50.03
72591;SHT31;60625;51.212;5.952;2023-09-08T11:27:57;30.57;49.53
72591;SHT31;60625;51.212;5.952;2023-09-08T11:32:57;30.67;49.38
72591;SHT31;60625;51.212;5.952;2023-09-08T11:37:59;30.77;49.49
72591;SHT31;60625;51.212;5.952;2023-09-08T11:43:01;31.07;47.65
72591;SHT31;60625;51.212;5.952;2023-09-08T11:48:05;31.22;48.22
72591;SHT31;60625;51.212;5.952;2023-09-08T11:53:06;31.15;47.54
72591;SHT31;60625;51.212;5.952;2023-09-08T11:58:06;31.18;47.35
72591;SHT31;60625;51.212;5.952;2023-09-08T12:03:10;31.43;46.90
72591;SHT31;60625;51.212;5.952;2023-09-08T12:08:13;31.51;46.82
72591;SHT31;60625;51.212;5.952;2023-09-08T12:13:15;31.58;47.12
72591;SHT31;60625;51.212;5.952;2023-09-08T12:18:36;31.73;46.83
72591;SHT31;60625;51.212;5.952;2023-09-08T12:23:48;31.92;45.90
72591;SHT31;60625;51.212;5.952;2023-09-08T12:28:51;32.01;46.22
72591;SHT31;60625;51.212;5.952;2023-09-08T12:33:52;32.25;45.53
72591;SHT31;60625;51.212;5.952;2023-09-08T12:38:53;32.44;45.00
72591;SHT31;60625;51.212;5.952;2023-09-08T12:43:54;32.62;44.26
72591;SHT31;60625;51.212;5.952;2023-09-08T12:48:54;32.79;44.09
72591;SHT31;60625;51.212;5.952;2023-09-08T12:53:55;32.86;44.34
72591;SHT31;60625;51.212;5.952;2023-09-08T12:58:55;33.00;44.46
72591;SHT31;60625;51.212;5.952;2023-09-08T13:03:56;33.01;44.25
72591;SHT31;60625;51.212;5.952;2023-09-08T13:08:56;33.03;43.83
72591;SHT31;60625;51.212;5.952;2023-09-08T13:13:59;33.10;42.81
72591;SHT31;60625;51.212;5.952;2023-09-08T13:18:59;33.10;42.28
72591;SHT31;60625;51.212;5.952;2023-09-08T13:24:02;33.24;42.62
72591;SHT31;60625;51.212;5.952;2023-09-08T13:29:07;33.30;41.96
72591;SHT31;60625;51.212;5.952;2023-09-08T13:34:07;33.36;41.65
72591;SHT31;60625;51.212;5.952;2023-09-08T13:39:07;33.39;41.62
72591;SHT31;60625;51.212;5.952;2023-09-08T13:44:08;33.44;41.62
72591;SHT31;60625;51.212;5.952;2023-09-08T13:49:09;33.47;41.69
72591;SHT31;60625;51.212;5.952;2023-09-08T13:54:09;33.47;41.81
72591;SHT31;60625;51.212;5.952;2023-09-08T13:59:10;33.53;42.35
72591;SHT31;60625;51.212;5.952;2023-09-08T14:04:11;33.46;42.58
72591;SHT31;60625;51.212;5.952;2023-09-08T14:09:12;33.44;42.05
72591;SHT31;60625;51.212;5.952;2023-09-08T14:14:12;33.48;42.81
72591;SHT31;60625;51.212;5.952;2023-09-08T14:19:13;33.33;43.22
72591;SHT31;60625;51.212;5.952;2023-09-08T14:24:13;33.17;43.88
72591;SHT31;60625;51.212;5.952;2023-09-08T14:29:14;33.05;43.46
72591;SHT31;60625;51.212;5.952;2023-09-08T14:34:14;33.02;43.72
72591;SHT31;60625;51.212;5.952;2023-09-08T14:39:15;33.16;42.99
72591;SHT31;60625;51.212;5.952;2023-09-08T14:44:17;33.23;42.67
72591;SHT31;60625;51.212;5.952;2023-09-08T14:49:18;33.27;42.85
72591;SHT31;60625;51.212;5.952;2023-09-08T14:54:18;33.23;42.12
72591;SHT31;60625;51.212;5.952;2023-09-08T14:59:19;33.11;43.19
72591;SHT31;60625;51.212;5.952;2023-09-08T15:04:19;33.08;43.88
72591;SHT31;60625;51.212;5.952;2023-09-08T15:09:19;33.07;43.26
72591;SHT31;60625;51.212;5.952;2023-09-08T15:14:20;33.08;42.81
72591;SHT31;60625;51.212;5.952;2023-09-08T15:19:21;33.05;42.76
72591;SHT31;60625;51.212;5.952;2023-09-08T15:24:21;32.96;42.85
72591;SHT31;60625;51.212;5.952;2023-09-08T15:29:22;32.97;42.54
72591;SHT31;60625;51.212;5.952;2023-09-08T15:34:23;33.06;42.05
72591;SHT31;60625;51.212;5.952;2023-09-08T15:39:23;33.03;41.97
72591;SHT31;60625;51.212;5.952;2023-09-08T15:44:24;33.05;43.29
72591;SHT31;60625;51.212;5.952;2023-09-08T15:49:25;32.88;43.88
72591;SHT31;60625;51.212;5.952;2023-09-08T15:54:26;32.78;44.26
72591;SHT31;60625;51.212;5.952;2023-09-08T15:59:26;32.65;45.26
72591;SHT31;60625;51.212;5.952;2023-09-08T16:04:27;32.51;44.99
72591;SHT31;60625;51.212;5.952;2023-09-08T16:09:27;32.40;44.69
72591;SHT31;60625;51.212;5.952;2023-09-08T16:14:28;32.32;45.13
72591;SHT31;60625;51.212;5.952;2023-09-08T16:19:29;32.18;48.15
72591;SHT31;60625;51.212;5.952;2023-09-08T16:24:30;31.97;48.31
72591;SHT31;60625;51.212;5.952;2023-09-08T16:29:30;31.71;48.72
72591;SHT31;60625;51.212;5.952;2023-09-08T16:34:30;31.46;48.72
72591;SHT31;60625;51.212;5.952;2023-09-08T16:39:31;31.25;50.83
72591;SHT31;60625;51.212;5.952;2023-09-08T16:44:32;31.05;51.60
72591;SHT31;60625;51.212;5.952;2023-09-08T16:49:32;30.83;53.04
72591;SHT31;60625;51.212;5.952;2023-09-08T16:54:33;30.67;53.08
72591;SHT31;60625;51.212;5.952;2023-09-08T16:59:34;30.45;54.50
72591;SHT31;60625;51.212;5.952;2023-09-08T17:04:34;30.12;56.27
72591;SHT31;60625;51.212;5.952;2023-09-08T17:09:35;29.91;54.38
72591;SHT31;60625;51.212;5.952;2023-09-08T17:14:36;29.78;54.45
72591;SHT31;60625;51.212;5.952;2023-09-08T17:19:36;29.63;54.81
72591;SHT31;60625;51.212;5.952;2023-09-08T17:24:37;29.43;55.86
72591;SHT31;60625;51.212;5.952;2023-09-08T17:29:37;29.22;55.79
72591;SHT31;60625;51.212;5.952;2023-09-08T17:34:38;29.00;56.57
72591;SHT31;60625;51.212;5.952;2023-09-08T17:39:38;28.77;57.78
72591;SHT31;60625;51.212;5.952;2023-09-08T17:44:39;28.57;58.74
72591;SHT31;60625;51.212;5.952;2023-09-08T17:49:39;28.38;59.03
72591;SHT31;60625;51.212;5.952;2023-09-08T17:54:40;28.18;59.06
72591;SHT31;60625;51.212;5.952;2023-09-08T17:59:40;28.00;59.56
72591;SHT31;60625;51.212;5.952;2023-09-08T18:04:41;27.78;59.94
72591;SHT31;60625;51.212;5.952;2023-09-08T18:09:41;27.56;60.25
72591;SHT31;60625;51.212;5.952;2023-09-08T18:14:42;27.33;61.55
72591;SHT31;60625;51.212;5.952;2023-09-08T18:19:43;27.20;61.70
72591;SHT31;60625;51.212;5.952;2023-09-08T18:24:43;27.07;61.57
72591;SHT31;60625;51.212;5.952;2023-09-08T18:29:44;26.94;61.53
72591;SHT31;60625;51.212;5.952;2023-09-08T18:34:45;26.84;61.60
72591;SHT31;60625;51.212;5.952;2023-09-08T18:39:45;26.68;61.96
72591;SHT31;60625;51.212;5.952;2023-09-08T18:44:46;26.53;62.57
72591;SHT31;60625;51.212;5.952;2023-09-08T18:49:46;26.41;62.97
72591;SHT31;60625;51.212;5.952;2023-09-08T18:54:47;26.33;63.24
72591;SHT31;60625;51.212;5.952;2023-09-08T18:59:48;26.21;63.81
72591;SHT31;60625;51.212;5.952;2023-09-08T19:04:51;26.08;64.42
72591;SHT31;60625;51.212;5.952;2023-09-08T19:09:52;25.98;65.08
72591;SHT31;60625;51.212;5.952;2023-09-08T19:14:52;25.86;65.55
72591;SHT31;60625;51.212;5.952;2023-09-08T19:19:55;25.66;65.93
72591;SHT31;60625;51.212;5.952;2023-09-08T19:24:55;25.40;66.54
72591;SHT31;60625;51.212;5.952;2023-09-08T19:29:56;25.16;67.13
72591;SHT31;60625;51.212;5.952;2023-09-08T19:34:56;25.03;67.36
72591;SHT31;60625;51.212;5.952;2023-09-08T19:39:57;25.03;67.36
72591;SHT31;60625;51.212;5.952;2023-09-08T19:44:58;25.08;67.42
72591;SHT31;60625;51.212;5.952;2023-09-08T19:49:59;25.06;68.11
72591;SHT31;60625;51.212;5.952;2023-09-08T19:55:00;24.93;68.26
72591;SHT31;60625;51.212;5.952;2023-09-08T20:00:00;24.78;68.42
72591;SHT31;60625;51.212;5.952;2023-09-08T20:05:01;24.59;68.86
72591;SHT31;60625;51.212;5.952;2023-09-08T20:10:02;24.45;69.14
72591;SHT31;60625;51.212;5.952;2023-09-08T20:15:04;24.34;69.56
72591;SHT31;60625;51.212;5.952;2023-09-08T20:20:05;24.25;69.82
72591;SHT31;60625;51.212;5.952;2023-09-08T20:25:08;24.10;70.23
72591;SHT31;60625;51.212;5.952;2023-09-08T20:30:09;23.97;70.60
72591;SHT31;60625;51.212;5.952;2023-09-08T20:35:10;23.87;70.89
72591;SHT31;60625;51.212;5.952;2023-09-08T20:40:11;23.58;70.70
72591;SHT31;60625;51.212;5.952;2023-09-08T20:45:12;23.41;71.32
72591;SHT31;60625;51.212;5.952;2023-09-08T20:50:12;23.35;71.68
72591;SHT31;60625;51.212;5.952;2023-09-08T20:55:13;23.29;71.69
72591;SHT31;60625;51.212;5.952;2023-09-08T21:00:14;23.26;72.15
72591;SHT31;60625;51.212;5.952;2023-09-08T21:05:15;23.26;72.71
72591;SHT31;60625;51.212;5.952;2023-09-08T21:10:16;23.24;73.07
72591;SHT31;60625;51.212;5.952;2023-09-08T21:15:16;23.25;73.04
72591;SHT31;60625;51.212;5.952;2023-09-08T21:20:17;23.26;73.04
72591;SHT31;60625;51.212;5.952;2023-09-08T21:25:18;23.28;72.95
72591;SHT31;60625;51.212;5.952;2023-09-08T21:30:19;23.20;72.78
72591;SHT31;60625;51.212;5.952;2023-09-08T21:35:19;22.98;73.12
72591;SHT31;60625;51.212;5.952;2023-09-08T21:40:20;22.79;73.53
72591;SHT31;60625;51.212;5.952;2023-09-08T21:45:20;22.47;73.68
72591;SHT31;60625;51.212;5.952;2023-09-08T21:50:21;22.35;74.54
72591;SHT31;60625;51.212;5.952;2023-09-08T21:55:21;22.34;74.75
72591;SHT31;60625;51.212;5.952;2023-09-08T22:00:22;22.39;74.88
72591;SHT31;60625;51.212;5.952;2023-09-08T22:05:24;22.44;75.06
72591;SHT31;60625;51.212;5.952;2023-09-08T22:10:25;22.48;75.24
72591;SHT31;60625;51.212;5.952;2023-09-08T22:15:26;22.50;75.34
72591;SHT31;60625;51.212;5.952;2023-09-08T22:20:27;22.47;75.27
72591;SHT31;60625;51.212;5.952;2023-09-08T22:25:27;22.22;74.61
72591;SHT31;60625;51.212;5.952;2023-09-08T22:30:28;21.99;75.13
72591;SHT31;60625;51.212;5.952;2023-09-08T22:35:28;21.95;75.78
72591;SHT31;60625;51.212;5.952;2023-09-08T22:40:29;21.86;75.78
72591;SHT31;60625;51.212;5.952;2023-09-08T22:45:30;21.72;75.89
72591;SHT31;60625;51.212;5.952;2023-09-08T22:50:31;21.67;76.15
72591;SHT31;60625;51.212;5.952;2023-09-08T22:55:33;21.68;76.71
72591;SHT31;60625;51.212;5.952;2023-09-08T23:00:34;21.74;77.05
72591;SHT31;60625;51.212;5.952;2023-09-08T23:05:34;21.74;76.89
72591;SHT31;60625;51.212;5.952;2023-09-08T23:10:35;21.65;76.83
72591;SHT31;60625;51.212;5.952;2023-09-08T23:15:35;21.54;77.15
72591;SHT31;60625;51.212;5.952;2023-09-08T23:20:36;21.50;77.54
72591;SHT31;60625;51.212;5.952;2023-09-08T23:25:41;21.45;77.14
72591;SHT31;60625;51.212;5.952;2023-09-08T23:30:41;21.38;77.04
72591;SHT31;60625;51.212;5.952;2023-09-08T23:35:42;21.26;77.64
72591;SHT31;60625;51.212;5.952;2023-09-08T23:40:42;21.15;77.58
72591;SHT31;60625;51.212;5.952;2023-09-08T23:45:43;21.11;77.66
72591;SHT31;60625;51.212;5.952;2023-09-08T23:50:55;21.16;77.73
72591;SHT31;60625;51.212;5.952;2023-09-08T23:55:59;21.12;77.36
